Time;durP1;ratioP1;P1;durP2;ratioP2;P2;SDS_P1;SDS_P2;PMS_P1;PMS_P2;Temp;Humidity;BMP_temperature;BMP_pressure;BME280_temperature;BME280_humidity;BME280_pressure;Samples;Min_cycle;Max_cycle;Signal;HPM_P1;HPM_P2
2022/03/23 00:01:42;;;;;;;7.57;4.38;;;4.30;99.90;;;;;;5108274;28;20085;-59
2022/03/23 00:04:09;;;;;;;7.10;2.92;;;4.30;99.90;;;;;;5105380;28;20044;-59
2022/03/23 00:06:37;;;;;;;6.65;3.70;;;4.30;99.90;;;;;;5112181;28;20047;-59
2022/03/23 00:09:04;;;;;;;7.25;3.50;;;4.40;99.90;;;;;;5112035;28;20491;-59
2022/03/23 00:11:33;;;;;;;;;;;4.40;99.90;;;;;;5108141;28;20615;-59
2022/03/23 00:14:00;;;;;;;6.15;3.10;;;4.50;99.90;;;;;;5116842;27;19920;-59
2022/03/23 00:16:27;;;;;;;8.93;3.60;;;4.50;99.90;;;;;;5132157;27;20043;-59
2022/03/23 00:18:54;;;;;;;8.93;3.88;;;4.60;99.90;;;;;;5123765;28;20065;-59
2022/03/23 00:21:22;;;;;;;8.63;4.40;;;4.60;99.90;;;;;;5103025;28;20692;-59
2022/03/23 00:23:49;;;;;;;;;;;4.30;99.90;;;;;;5112246;28;20075;-59
2022/03/23 00:26:16;;;;;;;6.03;2.88;;;4.00;99.90;;;;;;5111843;28;19919;-59
2022/03/23 00:28:46;;;;;;;7.75;2.75;;;3.90;99.90;;;;;;5105691;28;20043;-59
2022/03/23 00:31:14;;;;;;;7.72;2.90;;;3.80;99.90;;;;;;5105333;28;20131;-59
2022/03/23 00:33:41;;;;;;;6.93;2.60;;;3.80;99.90;;;;;;5111791;28;20134;-59
2022/03/23 00:36:09;;;;;;;;;;;3.70;99.90;;;;;;5112202;28;20044;-59
2022/03/23 00:38:36;;;;;;;4.88;2.65;;;3.70;99.90;;;;;;5101256;28;20326;-59
2022/03/23 00:41:03;;;;;;;7.88;3.28;;;3.60;99.90;;;;;;5109906;28;20453;-59
2022/03/23 00:43:31;;;;;;;6.15;3.10;;;3.50;99.90;;;;;;5076643;28;20040;-59
2022/03/23 00:45:59;;;;;;;5.32;3.03;;;3.50;99.90;;;;;;5110457;28;20109;-59
2022/03/23 00:48:26;;;;;;;4.28;2.70;;;3.40;99.90;;;;;;5096683;27;20130;-59
2022/03/23 00:50:55;;;;;;;6.03;3.08;;;3.40;99.90;;;;;;5117503;27;20506;-59
2022/03/23 00:53:22;;;;;;;6.68;3.47;;;3.40;99.90;;;;;;5097216;27;20059;-59
2022/03/23 00:55:50;;;;;;;6.95;3.22;;;3.30;99.90;;;;;;5105974;28;20044;-59
2022/03/23 00:58:17;;;;;;;8.73;3.35;;;3.30;99.90;;;;;;5115675;28;20097;-59
2022/03/23 01:00:45;;;;;;;8.52;3.70;;;3.20;99.90;;;;;;5115561;28;20039;-59
2022/03/23 01:03:12;;;;;;;7.65;4.03;;;3.30;99.90;;;;;;5107456;28;20040;-59
2022/03/23 01:05:40;;;;;;;13.77;4.13;;;3.20;99.90;;;;;;5094872;28;20055;-59
2022/03/23 01:08:10;;;;;;;9.15;3.53;;;3.20;99.90;;;;;;5115448;28;20043;-59
2022/03/23 01:10:38;;;;;;;8.90;4.13;;;3.30;99.90;;;;;;5107542;28;20040;-59
2022/03/23 01:13:06;;;;;;;11.45;4.25;;;3.30;99.90;;;;;;5093010;27;20567;-59
2022/03/23 01:15:34;;;;;;;8.45;4.15;;;3.30;99.90;;;;;;5117412;27;20074;-59
2022/03/23 01:18:04;;;;;;;7.80;4.10;;;3.30;99.90;;;;;;5108568;28;20134;-59
2022/03/23 01:20:31;;;;;;;8.30;4.10;;;3.30;99.90;;;;;;5103107;28;20144;-59
2022/03/23 01:22:58;;;;;;;7.22;3.58;;;3.30;99.90;;;;;;5096238;28;20048;-59
2022/03/23 01:25:25;;;;;;;9.63;2.78;;;3.20;99.90;;;;;;5096796;28;20139;-59
2022/03/23 01:27:52;;;;;;;8.90;4.45;;;3.20;99.90;;;;;;5095601;28;20043;-59
2022/03/23 01:30:19;;;;;;;8.40;4.10;;;3.20;99.90;;;;;;5106474;28;20487;-59
2022/03/23 01:32:46;;;;;;;6.18;3.20;;;3.20;99.90;;;;;;5096268;28;20054;-59
2022/03/23 01:35:14;;;;;;;11.80;3.30;;;3.20;99.90;;;;;;5096635;28;20058;-59
2022/03/23 01:37:42;;;;;;;;;;;3.20;99.90;;;;;;5107946;28;20040;-59
2022/03/23 01:40:10;;;;;;;5.53;3.35;;;3.20;99.90;;;;;;5093312;27;19919;-59
2022/03/23 01:42:38;;;;;;;8.82;3.58;;;3.20;99.90;;;;;;5135042;27;20754;-58
2022/03/23 01:45:06;;;;;;;12.48;3.50;;;3.20;99.90;;;;;;5116816;27;20059;-59
2022/03/23 01:47:34;;;;;;;9.43;3.97;;;3.20;99.90;;;;;;5122466;27;20089;-59
2022/03/23 01:50:04;;;;;;;6.10;3.67;;;3.10;99.90;;;;;;5088267;28;20134;-59
2022/03/23 01:52:32;;;;;;;7.20;3.40;;;3.10;99.90;;;;;;5109511;22;20049;-60
2022/03/23 01:55:06;;;;;;;5.65;2.97;;;3.10;99.90;;;;;;5087484;28;20055;-59
2022/03/23 02:01:59;;;;;;;8.95;3.78;;;2.90;99.90;;;;;;5108991;27;20029;-58
2022/03/23 02:04:29;;;;;;;7.20;3.30;;;2.80;99.90;;;;;;5085174;28;20089;-59
2022/03/23 02:06:56;;;;;;;11.65;3.92;;;2.80;99.90;;;;;;5109939;28;20055;-60
2022/03/23 02:09:27;;;;;;;8.02;3.63;;;2.80;99.90;;;;;;5093006;28;20064;-59
2022/03/23 02:12:02;;;;;;;8.65;3.78;;;2.90;99.90;;;;;;5086976;28;20040;-59
2022/03/23 02:14:29;;;;;;;5.57;2.97;;;2.90;99.90;;;;;;5095767;28;20048;-59
2022/03/23 02:16:56;;;;;;;4.45;2.17;;;2.80;99.90;;;;;;5095298;28;20035;-59
2022/03/23 02:19:23;;;;;;;4.30;1.98;;;2.60;99.90;;;;;;5087279;28;20040;-59
2022/03/23 02:21:54;;;;;;;;;;;2.50;99.90;;;;;;5095725;28;20093;-59
2022/03/23 02:24:29;;;;;;;5.15;2.03;;;2.30;99.90;;;;;;5114018;28;20000;-59
2022/03/23 02:26:57;;;;;;;5.65;2.75;;;2.20;99.90;;;;;;5109782;28;20035;-59
2022/03/23 02:29:32;;;;;;;8.23;2.80;;;2.10;99.90;;;;;;5125415;27;20522;-59
2022/03/23 02:32:01;;;;;;;6.82;2.70;;;2.10;99.90;;;;;;5115635;27;20039;-59
2022/03/23 02:34:29;;;;;;;4.57;2.78;;;2.10;99.90;;;;;;5118948;27;20317;-59
2022/03/23 02:36:57;;;;;;;9.48;3.53;;;2.00;99.90;;;;;;5101565;28;20446;-59
2022/03/23 02:39:28;;;;;;;7.43;3.75;;;2.10;99.90;;;;;;5093289;28;20054;-59
2022/03/23 02:41:56;;;;;;;9.07;3.75;;;2.10;99.90;;;;;;5074878;28;20040;-59
2022/03/23 02:44:26;;;;;;;14.05;4.45;;;2.20;99.90;;;;;;5106216;28;20426;-59
2022/03/23 02:46:53;;;;;;;9.02;3.92;;;2.30;99.90;;;;;;5104784;28;20431;-59
2022/03/23 02:49:20;;;;;;;8.25;4.18;;;2.40;99.90;;;;;;5113495;28;20100;-59
2022/03/23 02:51:48;;;;;;;11.40;4.15;;;2.50;99.90;;;;;;5113046;28;20044;-59
2022/03/23 03:03:42;;;;;;;8.73;3.65;;;2.50;99.90;;;;;;5080454;28;20052;-59
2022/03/23 03:06:09;;;;;;;7.35;3.85;;;2.50;99.90;;;;;;5092699;28;20090;-59
2022/03/23 03:08:48;;;;;;;9.52;4.13;;;2.50;99.90;;;;;;5099031;28;20118;-59
2022/03/23 03:11:20;;;;;;;6.45;3.72;;;2.50;99.90;;;;;;5102938;28;20114;-59
2022/03/23 03:13:49;;;;;;;8.68;4.35;;;2.50;99.90;;;;;;5112905;28;20050;-59
2022/03/23 03:16:17;;;;;;;6.85;3.20;;;2.50;99.90;;;;;;5113222;28;20445;-59
2022/03/23 03:18:46;;;;;;;7.85;3.40;;;2.40;99.90;;;;;;5110199;28;20035;-59
2022/03/23 03:21:14;;;;;;;11.13;4.25;;;2.50;99.90;;;;;;5120936;27;20100;-59
2022/03/23 03:23:42;;;;;;;9.02;3.28;;;2.50;99.90;;;;;;5133067;27;20114;-59
2022/03/23 03:26:11;;;;;;;6.35;3.30;;;2.60;99.90;;;;;;5133334;27;20039;-59
2022/03/23 03:28:39;;;;;;;6.97;3.97;;;2.60;99.90;;;;;;5112829;27;20392;-59
2022/03/23 03:31:08;;;;;;;11.65;4.18;;;2.80;99.90;;;;;;5118726;27;20092;-59
2022/03/23 03:33:36;;;;;;;7.15;3.63;;;2.70;99.90;;;;;;5133121;27;20094;-59
2022/03/23 03:36:04;;;;;;;9.73;3.33;;;2.60;99.90;;;;;;5111892;27;20541;-59
2022/03/23 03:38:32;;;;;;;9.20;3.60;;;2.60;99.90;;;;;;5125692;27;20098;-59
2022/03/23 03:40:59;;;;;;;9.05;3.40;;;2.50;99.90;;;;;;5132691;27;20073;-59
2022/03/23 03:43:26;;;;;;;7.82;3.63;;;2.50;99.90;;;;;;5126659;27;20043;-60
2022/03/23 03:45:54;;;;;;;8.25;3.60;;;2.40;99.90;;;;;;5107123;27;20429;-59
2022/03/23 03:48:20;;;;;;;10.23;3.33;;;2.30;99.90;;;;;;5132684;27;20052;-59
2022/03/23 03:50:48;;;;;;;8.98;2.55;;;2.20;99.90;;;;;;5111472;27;20385;-59
2022/03/23 03:53:15;;;;;;;5.18;2.88;;;2.20;99.90;;;;;;5105578;28;20182;-60
2022/03/23 03:55:42;;;;;;;9.43;3.08;;;2.00;99.90;;;;;;5110211;28;20488;-59
2022/03/23 03:58:10;;;;;;;8.90;3.45;;;2.00;99.90;;;;;;5111955;28;20058;-59
2022/03/23 04:00:37;;;;;;;6.97;3.70;;;1.90;99.90;;;;;;5110679;28;20096;-59
2022/03/23 04:03:05;;;;;;;9.10;3.90;;;2.00;99.90;;;;;;5104490;28;20040;-59
2022/03/23 04:05:33;;;;;;;8.18;4.47;;;2.00;99.90;;;;;;5111938;28;20510;-59
2022/03/23 04:08:01;;;;;;;8.38;3.78;;;2.00;99.90;;;;;;5111323;28;20492;-58
2022/03/23 04:10:28;;;;;;;8.52;3.92;;;2.10;99.90;;;;;;5103421;28;20054;-59
2022/03/23 04:12:56;;;;;;;9.73;3.80;;;2.10;99.90;;;;;;5111597;28;20044;-59
2022/03/23 04:15:25;;;;;;;11.43;3.67;;;2.10;99.90;;;;;;5112115;28;20047;-59
2022/03/23 04:17:53;;;;;;;8.95;3.88;;;2.10;99.90;;;;;;5108210;28;20115;-59
2022/03/23 04:20:21;;;;;;;6.00;3.35;;;2.10;99.90;;;;;;5106522;28;20044;-59
2022/03/23 04:22:47;;;;;;;6.72;3.47;;;2.20;99.90;;;;;;5111306;28;20036;-59
2022/03/23 04:25:17;;;;;;;5.35;2.55;;;2.20;99.90;;;;;;5111920;28;20035;-59
2022/03/23 04:27:48;;;;;;;10.23;3.63;;;2.20;99.90;;;;;;5102791;28;20105;-59
2022/03/23 04:30:19;;;;;;;7.35;3.50;;;2.20;99.90;;;;;;5111432;28;20062;-59
2022/03/23 04:32:49;;;;;;;6.40;3.13;;;2.30;99.90;;;;;;5100310;28;20054;-59
2022/03/23 04:35:17;;;;;;;9.35;3.67;;;2.30;99.90;;;;;;5104334;28;20036;-59
2022/03/23 04:37:44;;;;;;;8.20;4.13;;;2.40;99.90;;;;;;5103558;28;20070;-59
2022/03/23 04:40:14;;;;;;;;;;;2.50;99.90;;;;;;5111803;28;20108;-59
2022/03/23 04:42:42;;;;;;;6.40;3.25;;;2.40;99.90;;;;;;5100027;28;19920;-59
2022/03/23 04:45:10;;;;;;;9.25;3.60;;;2.40;99.90;;;;;;5103026;28;20096;-59
2022/03/23 04:47:38;;;;;;;5.85;3.28;;;2.40;99.90;;;;;;5107878;28;20043;-59
2022/03/23 04:50:08;;;;;;;10.60;4.13;;;2.30;99.90;;;;;;5111743;28;20055;-59
2022/03/23 04:52:38;;;;;;;7.78;3.72;;;2.30;99.90;;;;;;5104355;28;20047;-59
2022/03/23 04:55:07;;;;;;;8.48;4.00;;;2.20;99.90;;;;;;5101518;28;20112;-59
2022/03/23 04:57:34;;;;;;;12.35;4.00;;;2.20;99.90;;;;;;5110237;28;20510;-59
2022/03/23 05:00:02;;;;;;;8.55;4.57;;;2.10;99.90;;;;;;5099304;28;20048;-59
2022/03/23 05:02:29;;;;;;;9.50;4.18;;;2.10;99.90;;;;;;5107467;28;20127;-59
2022/03/23 05:04:56;;;;;;;9.02;3.53;;;2.00;99.90;;;;;;5096270;28;20059;-59
2022/03/23 05:07:23;;;;;;;7.43;3.30;;;1.80;99.90;;;;;;5101602;28;20139;-59
2022/03/23 05:09:50;;;;;;;10.80;3.55;;;1.60;99.90;;;;;;5091071;28;20044;-59
2022/03/23 05:12:17;;;;;;;7.97;2.97;;;1.50;99.90;;;;;;5100799;28;20147;-59
2022/03/23 05:14:44;;;;;;;6.05;3.00;;;1.40;99.90;;;;;;5101687;28;20032;-59
2022/03/23 05:17:11;;;;;;;12.35;3.47;;;1.30;99.90;;;;;;5110049;28;20127;-59
2022/03/23 05:19:38;;;;;;;7.60;3.65;;;1.20;99.90;;;;;;5111234;28;20039;-59
2022/03/23 05:22:05;;;;;;;;;;;1.20;99.90;;;;;;5102681;28;20127;-59
2022/03/23 05:24:32;;;;;;;11.07;3.97;;;1.20;99.90;;;;;;5106823;28;20264;-59
2022/03/23 05:26:59;;;;;;;12.63;4.43;;;1.30;99.90;;;;;;5110944;28;20520;-59
2022/03/23 05:29:27;;;;;;;7.53;3.83;;;1.40;99.90;;;;;;5106259;28;20499;-59
2022/03/23 05:31:53;;;;;;;8.73;3.67;;;1.50;99.90;;;;;;5109726;28;20044;-59
2022/03/23 05:34:21;;;;;;;8.93;4.00;;;1.70;99.90;;;;;;5112459;28;20047;-59
2022/03/23 05:36:47;;;;;;;15.32;4.65;;;1.80;99.90;;;;;;5111613;28;20044;-59
2022/03/23 05:39:14;;;;;;;11.02;4.80;;;1.90;99.90;;;;;;5109173;28;20036;-59
2022/03/23 05:41:42;;;;;;;9.57;4.60;;;1.90;99.90;;;;;;5111779;28;20069;-59
2022/03/23 05:44:09;;;;;;;8.57;4.20;;;1.90;99.90;;;;;;5114139;28;20044;-59
2022/03/23 05:46:36;;;;;;;10.88;4.80;;;1.90;99.90;;;;;;5112599;28;20040;-59
2022/03/23 05:49:03;;;;;;;;;;;1.90;99.90;;;;;;5110205;28;20071;-59
2022/03/23 05:51:30;;;;;;;14.02;5.35;;;1.90;99.90;;;;;;5113840;28;19966;-58
2022/03/23 05:53:57;;;;;;;6.63;3.92;;;1.70;99.90;;;;;;5113334;28;20039;-58
2022/03/23 05:56:24;;;;;;;12.65;5.90;;;1.60;99.90;;;;;;5109230;28;20043;-58
2022/03/23 05:58:51;;;;;;;19.98;8.75;;;1.50;99.90;;;;;;5111745;28;20140;-58
2022/03/23 06:01:18;;;;;;;18.83;6.80;;;1.40;99.90;;;;;;5113457;28;20071;-59
2022/03/23 06:03:49;;;;;;;14.23;7.00;;;1.30;99.90;;;;;;5113836;28;20081;-59
2022/03/23 06:06:17;;;;;;;15.18;6.93;;;1.30;99.90;;;;;;5105254;28;20694;-58
2022/03/23 06:08:44;;;;;;;20.95;7.85;;;1.40;99.90;;;;;;5095822;28;20484;-58
2022/03/23 06:11:11;;;;;;;16.38;6.47;;;1.50;99.90;;;;;;5113785;28;20455;-57
2022/03/23 06:13:38;;;;;;;17.25;7.22;;;1.60;99.90;;;;;;5111722;28;20071;-58
2022/03/23 06:16:06;;;;;;;19.00;6.72;;;1.70;99.90;;;;;;5107012;28;20039;-59
2022/03/23 06:18:34;;;;;;;14.40;5.40;;;1.80;99.90;;;;;;5113847;28;20043;-58
2022/03/23 06:21:01;;;;;;;;;;;2.00;99.90;;;;;;5113261;28;20568;-58
2022/03/23 06:23:29;;;;;;;8.98;4.35;;;2.10;99.90;;;;;;5105301;28;20477;-58
2022/03/23 06:26:00;;;;;;;8.88;3.97;;;2.20;99.90;;;;;;5093553;28;20052;-58
2022/03/23 06:28:27;;;;;;;8.18;4.20;;;2.30;99.90;;;;;;5093243;28;20044;-58
2022/03/23 06:30:55;;;;;;;6.93;3.50;;;2.40;99.90;;;;;;5092723;28;20123;-59
2022/03/23 06:33:22;;;;;;;11.57;3.75;;;2.40;99.90;;;;;;5105869;28;20089;-58
2022/03/23 06:35:51;;;;;;;7.38;3.78;;;2.50;99.90;;;;;;5132354;27;20043;-58
2022/03/23 06:38:18;;;;;;;7.82;3.97;;;2.50;99.90;;;;;;5127757;27;20088;-58
2022/03/23 06:40:45;;;;;;;9.77;4.28;;;2.50;99.90;;;;;;5111163;28;20549;-58
2022/03/23 06:43:12;;;;;;;10.15;4.22;;;2.50;99.90;;;;;;5106843;28;20047;-58
2022/03/23 06:45:40;;;;;;;9.18;3.75;;;2.60;99.90;;;;;;5113199;28;20046;-58
2022/03/23 06:48:08;;;;;;;11.27;4.10;;;2.70;99.90;;;;;;5113397;28;20105;-59
2022/03/23 06:50:35;;;;;;;9.02;4.05;;;3.00;99.90;;;;;;5111768;28;20036;-59
2022/03/23 06:53:03;;;;;;;9.43;3.70;;;3.30;99.90;;;;;;5105427;28;20483;-58
2022/03/23 06:55:30;;;;;;;;;;;3.50;99.90;;;;;;5113770;28;20075;-59
2022/03/23 06:57:57;;;;;;;7.30;3.33;;;3.80;99.90;;;;;;5108841;28;19924;-59
2022/03/23 07:00:24;;;;;;;12.95;4.03;;;4.00;99.90;;;;;;5108389;28;20070;-59
2022/03/23 07:02:51;;;;;;;9.32;3.78;;;4.20;99.90;;;;;;5112606;28;20035;-59
2022/03/23 07:05:19;;;;;;;10.70;3.95;;;4.30;99.90;;;;;;5112292;28;20031;-60
2022/03/23 07:10:34;;;;;;;11.95;3.72;;;4.50;99.90;;;;;;5112816;28;20039;-58
2022/03/23 07:13:01;;;;;;;9.40;3.85;;;4.70;99.90;;;;;;5112283;28;20044;-58
2022/03/23 07:15:29;;;;;;;8.82;3.63;;;4.80;99.90;;;;;;5112207;28;20465;-58
2022/03/23 07:17:56;;;;;;;;;;;5.00;99.90;;;;;;5104744;28;20050;-58
2022/03/23 07:20:24;;;;;;;9.88;3.95;;;5.20;99.90;;;;;;5112608;28;19942;-58
2022/03/23 07:22:51;;;;;;;7.47;4.00;;;5.30;99.90;;;;;;5111625;28;20043;-58
2022/03/23 07:25:18;;;;;;;5.63;3.50;;;5.40;99.90;;;;;;5110798;27;20440;-58
2022/03/23 07:27:45;;;;;;;7.10;3.53;;;5.60;99.70;;;;;;5132900;27;20095;-58
2022/03/23 07:30:12;;;;;;;6.60;3.85;;;5.80;98.90;;;;;;5133479;27;20466;-58
2022/03/23 07:32:39;;;;;;;10.52;3.80;;;5.90;98.70;;;;;;5115375;27;20507;-59
2022/03/23 07:35:07;;;;;;;9.77;3.40;;;6.00;98.60;;;;;;5105480;28;20130;-58
2022/03/23 07:37:35;;;;;;;10.27;4.40;;;6.10;98.50;;;;;;5112322;28;20065;-58
2022/03/23 07:40:03;;;;;;;7.13;3.65;;;6.30;98.30;;;;;;5112058;28;20039;-58
2022/03/23 07:42:30;;;;;;;8.65;4.03;;;6.40;98.40;;;;;;5103277;28;20036;-60
2022/03/23 07:44:57;;;;;;;15.38;4.03;;;6.50;98.00;;;;;;5091993;28;20039;-59
2022/03/23 07:47:24;;;;;;;5.10;3.40;;;6.60;97.50;;;;;;5091988;28;20048;-58
2022/03/23 07:49:51;;;;;;;6.88;3.80;;;6.60;97.40;;;;;;5092263;28;20039;-59
2022/03/23 07:52:19;;;;;;;7.63;3.35;;;6.70;96.10;;;;;;5099355;28;20492;-60
2022/03/23 07:58:43;;;;;;;6.97;3.78;;;6.90;96.00;;;;;;5055562;28;20120;-57
2022/03/23 08:01:10;;;;;;;7.30;3.50;;;7.20;94.80;;;;;;5062818;28;20381;-60
2022/03/23 08:03:37;;;;;;;;;;;7.30;95.70;;;;;;5059583;28;20068;-60
2022/03/23 08:06:04;;;;;;;9.70;3.30;;;7.40;96.00;;;;;;5046093;28;19990;-60
2022/03/23 08:08:31;;;;;;;11.00;3.65;;;7.60;95.40;;;;;;5040302;28;20409;-60
2022/03/23 08:10:58;;;;;;;13.43;4.13;;;7.70;95.40;;;;;;5062778;28;20496;-60
2022/03/23 08:13:25;;;;;;;13.00;4.07;;;7.90;95.80;;;;;;5071030;28;20136;-60
2022/03/23 08:15:52;;;;;;;11.30;4.47;;;8.00;94.60;;;;;;5071386;28;20044;-60
2022/03/23 08:18:21;;;;;;;6.45;3.60;;;8.20;95.20;;;;;;5055276;28;20547;-60
2022/03/23 08:20:49;;;;;;;8.38;3.63;;;8.30;94.50;;;;;;5070527;28;20570;-60
2022/03/23 08:23:16;;;;;;;17.05;3.63;;;8.50;95.70;;;;;;5071234;28;20090;-60
2022/03/23 08:25:43;;;;;;;12.43;3.60;;;8.60;92.70;;;;;;5067485;28;20037;-60
2022/03/23 08:28:12;;;;;;;11.60;3.38;;;8.60;93.00;;;;;;5062818;28;20040;-57
2022/03/23 08:30:39;;;;;;;6.53;3.10;;;8.80;91.80;;;;;;5071186;28;20498;-60
2022/03/23 08:33:07;;;;;;;9.07;3.40;;;8.90;90.90;;;;;;5070828;28;20044;-57
2022/03/23 08:35:35;;;;;;;;;;;9.10;91.60;;;;;;5064227;28;20045;-58
2022/03/23 08:38:04;;;;;;;12.10;3.83;;;9.10;90.20;;;;;;5062755;28;20014;-58
2022/03/23 08:40:31;;;;;;;6.10;3.88;;;9.40;85.80;;;;;;5071047;28;20044;-58
2022/03/23 08:42:59;;;;;;;13.15;3.83;;;9.70;83.70;;;;;;5069933;28;20052;-57
2022/03/23 08:45:26;;;;;;;;;;;10.00;82.00;;;;;;5059290;28;20041;-58
2022/03/23 08:47:54;;;;;;;19.45;3.50;;;10.10;80.50;;;;;;5070659;28;20015;-57
2022/03/23 08:50:21;;;;;;;6.20;2.97;;;10.20;77.10;;;;;;5070979;28;20044;-58
2022/03/23 08:52:48;;;;;;;6.53;3.08;;;10.40;76.20;;;;;;5062897;28;20071;-57
2022/03/23 08:55:19;;;;;;;8.90;2.60;;;10.70;72.80;;;;;;5065108;28;20446;-57
2022/03/23 08:57:47;;;;;;;4.65;2.75;;;10.80;69.90;;;;;;5071002;28;20068;-58
2022/03/23 09:00:14;;;;;;;4.68;2.58;;;11.00;68.80;;;;;;5068215;28;20067;-58
2022/03/23 09:02:42;;;;;;;6.50;3.63;;;11.10;71.30;;;;;;5058185;28;20047;-58
2022/03/23 09:05:11;;;;;;;10.75;3.65;;;11.10;67.50;;;;;;5071056;28;20040;-58
2022/03/23 09:07:39;;;;;;;9.02;3.40;;;11.20;66.70;;;;;;5070764;28;20063;-58
2022/03/23 09:10:09;;;;;;;9.35;3.33;;;11.40;68.00;;;;;;5069782;28;20040;-58
2022/03/23 09:12:36;;;;;;;7.15;3.30;;;11.70;64.40;;;;;;5060505;28;20068;-58
2022/03/23 09:15:06;;;;;;;9.43;3.38;;;11.80;65.10;;;;;;5074283;28;20447;-58
2022/03/23 09:17:33;;;;;;;7.78;3.13;;;12.00;63.90;;;;;;5073434;28;20098;-58
2022/03/23 09:20:03;;;;;;;5.60;2.78;;;12.10;62.60;;;;;;5055260;28;20033;-58
2022/03/23 09:22:34;;;;;;;8.40;3.10;;;11.90;63.80;;;;;;5070574;28;20102;-58
2022/03/23 09:25:06;;;;;;;6.47;2.95;;;11.90;65.70;;;;;;5074259;28;20505;-58
2022/03/23 09:27:34;;;;;;;10.55;3.85;;;12.00;62.80;;;;;;5063278;28;20079;-58
2022/03/23 09:30:03;;;;;;;4.95;3.13;;;12.20;61.80;;;;;;5074315;28;20037;-58
2022/03/23 09:32:30;;;;;;;8.70;3.20;;;12.30;60.90;;;;;;5073695;28;20056;-58
2022/03/23 09:34:57;;;;;;;4.25;2.92;;;12.40;60.20;;;;;;5068954;28;20044;-58
2022/03/23 09:40:10;;;;;;;4.95;3.03;;;12.40;56.90;;;;;;5074113;28;20037;-58
2022/03/23 09:42:40;;;;;;;4.45;2.95;;;12.40;59.30;;;;;;5060938;28;20135;-58
2022/03/23 09:45:07;;;;;;;7.18;3.35;;;12.70;58.40;;;;;;5067171;28;20094;-58
2022/03/23 09:47:36;;;;;;;6.88;3.15;;;12.80;58.30;;;;;;5074112;28;20115;-58
2022/03/23 09:50:04;;;;;;;6.60;3.17;;;12.90;56.30;;;;;;5072909;28;20074;-58
2022/03/23 09:52:31;;;;;;;6.68;3.38;;;12.80;58.80;;;;;;5061206;28;20048;-58
2022/03/23 09:54:58;;;;;;;5.93;2.58;;;12.80;58.60;;;;;;5073779;28;20044;-58
2022/03/23 09:57:25;;;;;;;11.85;3.65;;;12.70;58.20;;;;;;5073891;28;20045;-60
2022/03/23 09:59:52;;;;;;;5.47;2.88;;;12.70;57.20;;;;;;5064704;28;20103;-60
2022/03/23 10:02:39;;;;;;;6.53;3.05;;;12.90;58.40;;;;;;5070765;28;20128;-59
2022/03/23 10:05:50;;;;;;;10.60;3.28;;;13.00;58.90;;;;;;5056703;28;20033;-59
2022/03/23 10:08:58;;;;;;;9.45;3.40;;;13.20;58.20;;;;;;5047894;28;20045;-59
2022/03/23 10:11:58;;;;;;;9.98;3.38;;;13.30;58.40;;;;;;5050727;28;20045;-59
2022/03/23 10:15:02;;;;;;;8.40;3.33;;;13.40;56.50;;;;;;5043041;28;20053;-59
2022/03/23 10:17:42;;;;;;;4.43;3.15;;;13.50;56.10;;;;;;5049366;28;20044;-59
2022/03/23 10:20:13;;;;;;;5.35;2.80;;;13.50;55.70;;;;;;5042705;28;20041;-59
2022/03/23 10:22:48;;;;;;;6.85;3.00;;;13.60;56.40;;;;;;5047397;28;20056;-59
2022/03/23 10:25:17;;;;;;;7.35;2.65;;;13.90;55.80;;;;;;5047530;28;20061;-59
2022/03/23 10:27:44;;;;;;;4.40;2.90;;;13.80;54.50;;;;;;5053095;28;20041;-59
2022/03/23 10:30:14;;;;;;;6.10;3.42;;;13.80;55.30;;;;;;5048464;28;20117;-59
2022/03/23 10:32:42;;;;;;;8.38;3.10;;;13.90;54.70;;;;;;5062527;28;20394;-60
2022/03/23 10:35:15;;;;;;;8.95;3.10;;;14.00;55.20;;;;;;5060768;28;20090;-60
2022/03/23 10:37:43;;;;;;;4.70;3.10;;;14.00;54.40;;;;;;5050411;28;20314;-59
2022/03/23 10:40:14;;;;;;;10.32;3.25;;;14.00;55.20;;;;;;5064521;28;20488;-59
2022/03/23 10:42:44;;;;;;;4.07;3.08;;;14.20;55.40;;;;;;5072349;28;20849;-59
2022/03/23 10:45:19;;;;;;;10.10;3.53;;;14.30;53.70;;;;;;5073015;28;20040;-59
2022/03/23 10:47:48;;;;;;;5.32;2.97;;;14.30;54.10;;;;;;5067559;28;20072;-59
2022/03/23 10:50:23;;;;;;;7.55;3.10;;;14.50;53.10;;;;;;5066917;28;20040;-59
2022/03/23 10:52:52;;;;;;;7.63;3.22;;;14.50;53.60;;;;;;5072482;28;20055;-60
2022/03/23 10:55:21;;;;;;;6.63;2.90;;;14.60;53.70;;;;;;5054489;28;20060;-60
2022/03/23 10:58:03;;;;;;;8.75;2.92;;;14.60;54.70;;;;;;5052688;28;20049;-59
2022/03/23 11:00:42;;;;;;;7.82;3.05;;;14.70;53.00;;;;;;5052342;28;20079;-60
2022/03/23 11:03:09;;;;;;;7.55;3.10;;;14.90;54.10;;;;;;5047368;28;20048;-60
2022/03/23 11:05:55;;;;;;;5.13;3.03;;;15.00;52.60;;;;;;5058851;28;20045;-60
2022/03/23 11:08:23;;;;;;;4.50;2.90;;;15.10;52.50;;;;;;5072544;28;20032;-60
2022/03/23 11:16:31;;;;;;;7.15;2.60;;;15.20;51.60;;;;;;5072382;28;20060;-60
2022/03/23 11:19:08;;;;;;;5.90;3.15;;;15.30;50.60;;;;;;5072085;28;20072;-60
2022/03/23 11:22:12;;;;;;;5.28;2.47;;;15.50;50.50;;;;;;5056864;28;20063;-60
2022/03/23 11:24:44;;;;;;;7.40;2.67;;;15.60;48.90;;;;;;5070065;28;20385;-60
2022/03/23 11:27:19;;;;;;;5.32;2.85;;;15.70;47.60;;;;;;5071883;28;20416;-60
2022/03/23 11:29:48;;;;;;;4.70;2.60;;;15.80;49.80;;;;;;5067397;28;20056;-59
2022/03/23 11:32:18;;;;;;;7.05;2.53;;;15.90;49.70;;;;;;5065203;28;20045;-60
2022/03/23 11:34:48;;;;;;;8.60;2.78;;;16.00;50.40;;;;;;5071955;28;20048;-59
2022/03/23 11:37:19;;;;;;;5.30;2.80;;;15.90;47.80;;;;;;5064421;28;20051;-60
2022/03/23 11:39:46;;;;;;;9.57;3.05;;;15.90;47.00;;;;;;5063188;28;20045;-60
2022/03/23 11:42:14;;;;;;;2.95;2.17;;;16.00;48.60;;;;;;5071510;28;20045;-60
2022/03/23 11:44:43;;;;;;;4.50;2.58;;;16.10;47.90;;;;;;5058641;28;20048;-60
2022/03/23 11:47:28;;;;;;;3.67;2.28;;;16.20;47.80;;;;;;5051635;28;20133;-60
2022/03/23 11:50:34;;;;;;;3.35;2.47;;;16.20;46.00;;;;;;5051899;28;20091;-59
2022/03/23 11:53:03;;;;;;;3.15;2.20;;;16.30;46.70;;;;;;5035620;28;20061;-60
2022/03/23 11:55:50;;;;;;;4.03;2.15;;;16.30;47.90;;;;;;5059387;28;20401;-60
2022/03/23 11:58:21;;;;;;;4.82;2.42;;;16.40;47.30;;;;;;5060852;28;20083;-60
2022/03/23 12:00:51;;;;;;;8.43;2.40;;;16.60;46.70;;;;;;5071578;28;20131;-60
2022/03/23 12:03:41;;;;;;;6.38;2.80;;;16.70;46.30;;;;;;5059630;28;20080;-60
2022/03/23 12:06:14;;;;;;;5.50;2.40;;;16.70;45.30;;;;;;5044709;28;20049;-60
2022/03/23 12:08:58;;;;;;;4.65;2.50;;;16.80;46.10;;;;;;5051545;28;20044;-60
2022/03/23 12:11:49;;;;;;;8.63;2.45;;;16.90;46.00;;;;;;5056497;28;20143;-60
2022/03/23 12:14:20;;;;;;;4.90;2.70;;;17.00;46.00;;;;;;5060411;28;20033;-60
2022/03/23 12:16:50;;;;;;;5.97;2.40;;;16.90;44.50;;;;;;5071481;28;20049;-60
2022/03/23 12:19:52;;;;;;;3.67;2.40;;;16.70;45.60;;;;;;5069792;28;20032;-60
2022/03/23 12:22:45;;;;;;;3.28;2.65;;;16.80;44.10;;;;;;5054183;28;20095;-60
2022/03/23 12:25:26;;;;;;;4.60;2.70;;;17.00;45.40;;;;;;5031527;28;20041;-60
2022/03/23 12:28:31;;;;;;;4.90;2.53;;;17.10;43.90;;;;;;5031115;28;20127;-60
2022/03/23 12:31:01;;;;;;;5.35;2.30;;;17.20;44.40;;;;;;5051240;28;20040;-60
2022/03/23 12:33:30;;;;;;;5.47;2.50;;;17.30;44.10;;;;;;5051212;28;20102;-60
2022/03/23 12:36:03;;;;;;;6.13;2.78;;;17.40;43.60;;;;;;5051207;28;20045;-60
2022/03/23 12:38:32;;;;;;;3.35;2.40;;;17.40;43.70;;;;;;5051816;28;20048;-60
2022/03/23 12:41:06;;;;;;;4.57;2.40;;;17.50;44.30;;;;;;5054880;28;20045;-59
2022/03/23 12:43:39;;;;;;;5.25;2.75;;;17.50;44.30;;;;;;5073649;28;20045;-60
2022/03/23 12:46:20;;;;;;;5.80;2.83;;;17.60;43.20;;;;;;5075186;28;20036;-59
2022/03/23 12:57:49;;;;;;;6.43;2.17;;;17.70;45.80;;;;;;5061351;28;20037;-60
2022/03/23 13:00:31;;;;;;;5.95;2.85;;;17.80;44.30;;;;;;5074882;28;20055;-60
2022/03/23 13:03:05;;;;;;;7.35;2.78;;;17.80;45.40;;;;;;5074325;28;20044;-60
2022/03/23 13:05:33;;;;;;;4.30;2.25;;;17.90;44.90;;;;;;5062134;28;20063;-60
2022/03/23 13:08:21;;;;;;;4.30;2.40;;;18.00;46.20;;;;;;5067055;28;20102;-60
2022/03/23 13:10:53;;;;;;;;;;;18.00;44.60;;;;;;5075051;28;20532;-60
2022/03/23 13:13:20;;;;;;;5.95;2.40;;;18.00;45.30;;;;;;5062497;28;19979;-59
2022/03/23 13:15:48;;;;;;;3.92;2.47;;;18.10;43.80;;;;;;5063810;28;20467;-59
2022/03/23 13:18:15;;;;;;;5.90;2.58;;;18.10;43.90;;;;;;5074559;28;20455;-59
2022/03/23 13:20:49;;;;;;;5.47;2.85;;;18.10;45.20;;;;;;5069204;28;20065;-60
2022/03/23 13:23:19;;;;;;;3.58;2.65;;;18.10;44.40;;;;;;5065954;28;20506;-60
2022/03/23 13:26:13;;;;;;;11.95;3.17;;;18.20;46.50;;;;;;5074337;28;20047;-60
2022/03/23 13:28:47;;;;;;;9.32;3.05;;;18.20;43.70;;;;;;5074451;28;20041;-59
2022/03/23 13:31:23;;;;;;;4.72;2.63;;;18.20;44.40;;;;;;5056379;28;20124;-60
2022/03/23 13:33:51;;;;;;;4.43;2.65;;;18.20;43.00;;;;;;5073428;28;20412;-59
2022/03/23 13:36:23;;;;;;;7.60;3.05;;;18.20;42.20;;;;;;5074126;28;20102;-60
2022/03/23 13:38:55;;;;;;;4.65;2.30;;;18.20;42.10;;;;;;5070154;28;20086;-60
2022/03/23 13:44:14;;;;;;;5.45;3.38;;;18.30;42.60;;;;;;5034182;28;20072;-60
2022/03/23 13:46:43;;;;;;;3.60;2.38;;;18.30;43.30;;;;;;5034049;28;20048;-60
2022/03/23 13:49:13;;;;;;;6.05;3.05;;;18.40;40.60;;;;;;5056392;28;20033;-59
2022/03/23 13:51:45;;;;;;;6.55;3.40;;;18.40;42.40;;;;;;5071199;28;20184;-60